sensor_id;sensor_type;location;lat;lon;timestamp;P1;durP1;ratioP1;P2;durP2;ratioP2
15307;SDS011;7755;52.208;6.964;2023-05-10T00:00:38;10.60;;;9.60;;
15307;SDS011;7755;52.208;6.964;2023-05-10T00:04:43;10.03;;;8.87;;
15307;SDS011;7755;52.208;6.964;2023-05-10T00:08:45;12.13;;;9.73;;
15307;SDS011;7755;52.208;6.964;2023-05-10T00:12:48;12.63;;;10.67;;
15307;SDS011;7755;52.208;6.964;2023-05-10T00:16:51;11.43;;;10.03;;
15307;SDS011;7755;52.208;6.964;2023-05-10T00:20:55;10.97;;;9.40;;
15307;SDS011;7755;52.208;6.964;2023-05-10T00:24:58;9.87;;;8.17;;
15307;SDS011;7755;52.208;6.964;2023-05-10T00:29:01;7.80;;;7.00;;
15307;SDS011;7755;52.208;6.964;2023-05-10T00:33:04;6.37;;;5.70;;
15307;SDS011;7755;52.208;6.964;2023-05-10T00:37:08;5.50;;;4.90;;
15307;SDS011;7755;52.208;6.964;2023-05-10T00:41:11;4.03;;;3.73;;
15307;SDS011;7755;52.208;6.964;2023-05-10T00:45:15;4.67;;;4.27;;
15307;SDS011;7755;52.208;6.964;2023-05-10T00:49:18;4.73;;;4.33;;
15307;SDS011;7755;52.208;6.964;2023-05-10T00:53:23;4.57;;;4.17;;
15307;SDS011;7755;52.208;6.964;2023-05-10T00:57:26;5.83;;;5.23;;
15307;SDS011;7755;52.208;6.964;2023-05-10T01:01:29;5.67;;;5.17;;
15307;SDS011;7755;52.208;6.964;2023-05-10T01:05:32;5.97;;;5.37;;
15307;SDS011;7755;52.208;6.964;2023-05-10T01:09:36;5.73;;;5.23;;
15307;SDS011;7755;52.208;6.964;2023-05-10T01:13:39;5.10;;;4.70;;
15307;SDS011;7755;52.208;6.964;2023-05-10T01:17:44;5.37;;;4.93;;
15307;SDS011;7755;52.208;6.964;2023-05-10T01:21:49;6.50;;;5.77;;
15307;SDS011;7755;52.208;6.964;2023-05-10T01:30:43;9.07;;;7.23;;
15307;SDS011;7755;52.208;6.964;2023-05-10T01:35:08;7.40;;;6.70;;
15307;SDS011;7755;52.208;6.964;2023-05-10T01:39:20;7.53;;;6.83;;
15307;SDS011;7755;52.208;6.964;2023-05-10T01:43:28;10.00;;;8.57;;
15307;SDS011;7755;52.208;6.964;2023-05-10T01:47:35;8.37;;;7.57;;
15307;SDS011;7755;52.208;6.964;2023-05-10T01:51:44;7.07;;;6.37;;
15307;SDS011;7755;52.208;6.964;2023-05-10T01:55:51;9.10;;;8.17;;
15307;SDS011;7755;52.208;6.964;2023-05-10T01:59:56;10.40;;;8.20;;
15307;SDS011;7755;52.208;6.964;2023-05-10T02:04:02;9.37;;;8.47;;
15307;SDS011;7755;52.208;6.964;2023-05-10T02:08:08;9.93;;;9.00;;
15307;SDS011;7755;52.208;6.964;2023-05-10T02:12:11;11.33;;;9.97;;
15307;SDS011;7755;52.208;6.964;2023-05-10T02:16:16;11.07;;;9.80;;
15307;SDS011;7755;52.208;6.964;2023-05-10T02:20:24;15.07;;;11.90;;
15307;SDS011;7755;52.208;6.964;2023-05-10T02:24:29;9.80;;;8.90;;
15307;SDS011;7755;52.208;6.964;2023-05-10T02:28:34;12.17;;;10.73;;
15307;SDS011;7755;52.208;6.964;2023-05-10T02:32:39;15.07;;;11.47;;
15307;SDS011;7755;52.208;6.964;2023-05-10T02:36:43;10.60;;;9.10;;
15307;SDS011;7755;52.208;6.964;2023-05-10T02:40:47;15.30;;;11.10;;
15307;SDS011;7755;52.208;6.964;2023-05-10T02:44:52;10.30;;;9.23;;
15307;SDS011;7755;52.208;6.964;2023-05-10T02:48:56;13.53;;;11.17;;
15307;SDS011;7755;52.208;6.964;2023-05-10T02:53:00;15.03;;;12.10;;
15307;SDS011;7755;52.208;6.964;2023-05-10T02:57:07;12.93;;;11.10;;
15307;SDS011;7755;52.208;6.964;2023-05-10T03:01:13;11.27;;;10.13;;
15307;SDS011;7755;52.208;6.964;2023-05-10T03:05:16;12.07;;;10.63;;
15307;SDS011;7755;52.208;6.964;2023-05-10T03:09:20;15.43;;;11.90;;
15307;SDS011;7755;52.208;6.964;2023-05-10T03:13:28;14.70;;;11.67;;
15307;SDS011;7755;52.208;6.964;2023-05-10T03:17:39;15.47;;;11.87;;
15307;SDS011;7755;52.208;6.964;2023-05-10T03:21:50;12.33;;;10.87;;
15307;SDS011;7755;52.208;6.964;2023-05-10T03:25:54;14.00;;;11.53;;
15307;SDS011;7755;52.208;6.964;2023-05-10T03:29:59;14.57;;;12.03;;
15307;SDS011;7755;52.208;6.964;2023-05-10T03:34:06;17.97;;;12.87;;
15307;SDS011;7755;52.208;6.964;2023-05-10T03:38:09;18.33;;;13.23;;
15307;SDS011;7755;52.208;6.964;2023-05-10T03:42:12;16.20;;;12.23;;
15307;SDS011;7755;52.208;6.964;2023-05-10T03:46:16;15.57;;;13.07;;
15307;SDS011;7755;52.208;6.964;2023-05-10T03:50:19;19.73;;;14.77;;
15307;SDS011;7755;52.208;6.964;2023-05-10T03:54:22;17.27;;;14.37;;
15307;SDS011;7755;52.208;6.964;2023-05-10T03:58:25;28.70;;;17.87;;
15307;SDS011;7755;52.208;6.964;2023-05-10T04:02:29;22.23;;;15.10;;
15307;SDS011;7755;52.208;6.964;2023-05-10T04:06:32;26.43;;;17.13;;
15307;SDS011;7755;52.208;6.964;2023-05-10T04:10:35;37.57;;;21.73;;
15307;SDS011;7755;52.208;6.964;2023-05-10T04:14:37;39.40;;;23.03;;
15307;SDS011;7755;52.208;6.964;2023-05-10T04:18:41;26.23;;;18.57;;
15307;SDS011;7755;52.208;6.964;2023-05-10T04:22:44;36.90;;;22.80;;
15307;SDS011;7755;52.208;6.964;2023-05-10T04:26:47;33.07;;;21.37;;
15307;SDS011;7755;52.208;6.964;2023-05-10T04:30:49;40.53;;;24.93;;
15307;SDS011;7755;52.208;6.964;2023-05-10T04:34:53;34.40;;;22.90;;
15307;SDS011;7755;52.208;6.964;2023-05-10T04:38:56;37.50;;;24.70;;
15307;SDS011;7755;52.208;6.964;2023-05-10T04:42:59;48.33;;;27.63;;
15307;SDS011;7755;52.208;6.964;2023-05-10T04:47:01;36.60;;;24.03;;
15307;SDS011;7755;52.208;6.964;2023-05-10T04:51:06;32.70;;;23.30;;
15307;SDS011;7755;52.208;6.964;2023-05-10T04:55:08;47.87;;;27.97;;
15307;SDS011;7755;52.208;6.964;2023-05-10T04:59:11;48.87;;;28.17;;
15307;SDS011;7755;52.208;6.964;2023-05-10T05:03:14;45.97;;;28.97;;
15307;SDS011;7755;52.208;6.964;2023-05-10T05:07:18;52.50;;;30.07;;
15307;SDS011;7755;52.208;6.964;2023-05-10T05:11:21;56.97;;;32.53;;
15307;SDS011;7755;52.208;6.964;2023-05-10T05:15:24;66.33;;;33.57;;
15307;SDS011;7755;52.208;6.964;2023-05-10T05:19:27;56.30;;;32.30;;
15307;SDS011;7755;52.208;6.964;2023-05-10T05:23:31;58.90;;;33.37;;
15307;SDS011;7755;52.208;6.964;2023-05-10T05:27:33;55.70;;;33.23;;
15307;SDS011;7755;52.208;6.964;2023-05-10T05:31:36;53.87;;;32.10;;
15307;SDS011;7755;52.208;6.964;2023-05-10T05:35:39;55.07;;;31.30;;
15307;SDS011;7755;52.208;6.964;2023-05-10T05:39:43;73.47;;;37.47;;
15307;SDS011;7755;52.208;6.964;2023-05-10T05:43:46;59.83;;;36.40;;
15307;SDS011;7755;52.208;6.964;2023-05-10T05:47:49;59.63;;;34.67;;
15307;SDS011;7755;52.208;6.964;2023-05-10T05:51:51;65.17;;;37.90;;
15307;SDS011;7755;52.208;6.964;2023-05-10T05:55:56;58.13;;;34.37;;
15307;SDS011;7755;52.208;6.964;2023-05-10T06:00:00;67.30;;;36.33;;
15307;SDS011;7755;52.208;6.964;2023-05-10T06:04:12;65.07;;;38.00;;
15307;SDS011;7755;52.208;6.964;2023-05-10T06:08:15;61.70;;;34.80;;
15307;SDS011;7755;52.208;6.964;2023-05-10T06:12:19;54.97;;;33.80;;
15307;SDS011;7755;52.208;6.964;2023-05-10T06:16:22;58.67;;;34.27;;
15307;SDS011;7755;52.208;6.964;2023-05-10T06:20:25;60.87;;;33.50;;
15307;SDS011;7755;52.208;6.964;2023-05-10T06:24:28;53.33;;;32.93;;
15307;SDS011;7755;52.208;6.964;2023-05-10T06:28:32;50.10;;;32.87;;
15307;SDS011;7755;52.208;6.964;2023-05-10T06:32:34;52.30;;;32.90;;
15307;SDS011;7755;52.208;6.964;2023-05-10T06:36:37;56.50;;;33.77;;
15307;SDS011;7755;52.208;6.964;2023-05-10T06:40:41;50.37;;;32.13;;
15307;SDS011;7755;52.208;6.964;2023-05-10T06:44:45;54.90;;;34.57;;
15307;SDS011;7755;52.208;6.964;2023-05-10T06:48:48;50.70;;;31.97;;
15307;SDS011;7755;52.208;6.964;2023-05-10T06:52:51;49.83;;;29.73;;
15307;SDS011;7755;52.208;6.964;2023-05-10T06:56:53;56.27;;;34.37;;
15307;SDS011;7755;52.208;6.964;2023-05-10T07:01:02;46.33;;;30.57;;
15307;SDS011;7755;52.208;6.964;2023-05-10T07:05:05;50.03;;;32.53;;
15307;SDS011;7755;52.208;6.964;2023-05-10T07:09:09;49.23;;;31.20;;
15307;SDS011;7755;52.208;6.964;2023-05-10T07:13:11;50.40;;;30.53;;
15307;SDS011;7755;52.208;6.964;2023-05-10T07:17:15;52.07;;;32.40;;
15307;SDS011;7755;52.208;6.964;2023-05-10T07:21:18;52.33;;;31.70;;
15307;SDS011;7755;52.208;6.964;2023-05-10T07:25:21;49.83;;;31.87;;
15307;SDS011;7755;52.208;6.964;2023-05-10T07:29:25;49.10;;;30.63;;
15307;SDS011;7755;52.208;6.964;2023-05-10T07:33:29;42.93;;;29.10;;
15307;SDS011;7755;52.208;6.964;2023-05-10T07:37:32;49.27;;;31.23;;
15307;SDS011;7755;52.208;6.964;2023-05-10T07:41:35;50.87;;;31.93;;
15307;SDS011;7755;52.208;6.964;2023-05-10T07:45:38;50.57;;;32.70;;
15307;SDS011;7755;52.208;6.964;2023-05-10T07:49:42;47.23;;;29.83;;
15307;SDS011;7755;52.208;6.964;2023-05-10T07:53:45;44.90;;;28.57;;
15307;SDS011;7755;52.208;6.964;2023-05-10T07:57:48;36.83;;;25.87;;
15307;SDS011;7755;52.208;6.964;2023-05-10T08:01:51;40.57;;;27.67;;
15307;SDS011;7755;52.208;6.964;2023-05-10T08:05:55;43.30;;;27.53;;
15307;SDS011;7755;52.208;6.964;2023-05-10T08:09:58;37.60;;;27.30;;
15307;SDS011;7755;52.208;6.964;2023-05-10T08:14:01;38.13;;;25.27;;
15307;SDS011;7755;52.208;6.964;2023-05-10T08:18:03;40.27;;;26.00;;
15307;SDS011;7755;52.208;6.964;2023-05-10T08:22:07;39.03;;;27.00;;
15307;SDS011;7755;52.208;6.964;2023-05-10T08:26:10;39.87;;;26.03;;
15307;SDS011;7755;52.208;6.964;2023-05-10T08:30:13;41.83;;;25.73;;
15307;SDS011;7755;52.208;6.964;2023-05-10T08:34:16;33.83;;;23.50;;
15307;SDS011;7755;52.208;6.964;2023-05-10T08:38:20;34.23;;;23.57;;
15307;SDS011;7755;52.208;6.964;2023-05-10T08:42:23;42.73;;;26.67;;
15307;SDS011;7755;52.208;6.964;2023-05-10T08:46:31;34.83;;;23.47;;
15307;SDS011;7755;52.208;6.964;2023-05-10T08:50:38;33.10;;;22.40;;
15307;SDS011;7755;52.208;6.964;2023-05-10T08:54:43;29.10;;;21.67;;
15307;SDS011;7755;52.208;6.964;2023-05-10T08:58:46;32.23;;;22.73;;
15307;SDS011;7755;52.208;6.964;2023-05-10T09:02:50;37.73;;;23.80;;
15307;SDS011;7755;52.208;6.964;2023-05-10T09:06:53;36.30;;;24.00;;
15307;SDS011;7755;52.208;6.964;2023-05-10T09:10:57;38.70;;;25.23;;
15307;SDS011;7755;52.208;6.964;2023-05-10T09:15:00;36.30;;;24.27;;
15307;SDS011;7755;52.208;6.964;2023-05-10T09:19:04;38.00;;;24.60;;
15307;SDS011;7755;52.208;6.964;2023-05-10T09:23:08;38.97;;;25.40;;
15307;SDS011;7755;52.208;6.964;2023-05-10T09:27:12;39.77;;;25.40;;
15307;SDS011;7755;52.208;6.964;2023-05-10T09:31:15;48.30;;;34.53;;
15307;SDS011;7755;52.208;6.964;2023-05-10T09:35:18;38.70;;;25.03;;
15307;SDS011;7755;52.208;6.964;2023-05-10T09:39:29;38.03;;;24.63;;
15307;SDS011;7755;52.208;6.964;2023-05-10T09:43:38;37.23;;;21.97;;
15307;SDS011;7755;52.208;6.964;2023-05-10T09:47:42;35.87;;;23.90;;
15307;SDS011;7755;52.208;6.964;2023-05-10T09:51:45;37.60;;;23.53;;
15307;SDS011;7755;52.208;6.964;2023-05-10T09:55:48;36.43;;;22.77;;
15307;SDS011;7755;52.208;6.964;2023-05-10T09:59:53;36.93;;;23.93;;
15307;SDS011;7755;52.208;6.964;2023-05-10T10:03:56;36.53;;;22.43;;
15307;SDS011;7755;52.208;6.964;2023-05-10T10:08:01;34.83;;;23.10;;
15307;SDS011;7755;52.208;6.964;2023-05-10T10:12:05;36.40;;;23.50;;
15307;SDS011;7755;52.208;6.964;2023-05-10T10:16:09;35.93;;;24.00;;
15307;SDS011;7755;52.208;6.964;2023-05-10T10:20:12;34.83;;;22.37;;
15307;SDS011;7755;52.208;6.964;2023-05-10T10:24:16;36.97;;;23.03;;
15307;SDS011;7755;52.208;6.964;2023-05-10T10:28:21;28.97;;;19.50;;
15307;SDS011;7755;52.208;6.964;2023-05-10T10:32:33;26.90;;;18.67;;
15307;SDS011;7755;52.208;6.964;2023-05-10T10:36:45;27.20;;;18.10;;
15307;SDS011;7755;52.208;6.964;2023-05-10T10:40:49;24.27;;;15.60;;
15307;SDS011;7755;52.208;6.964;2023-05-10T10:45:13;17.20;;;13.43;;
15307;SDS011;7755;52.208;6.964;2023-05-10T10:49:18;19.47;;;13.67;;
15307;SDS011;7755;52.208;6.964;2023-05-10T10:53:21;18.13;;;13.67;;
15307;SDS011;7755;52.208;6.964;2023-05-10T10:57:27;19.73;;;14.63;;
15307;SDS011;7755;52.208;6.964;2023-05-10T11:01:32;18.90;;;14.70;;
15307;SDS011;7755;52.208;6.964;2023-05-10T11:05:39;23.13;;;16.00;;
15307;SDS011;7755;52.208;6.964;2023-05-10T11:09:44;18.03;;;14.03;;
15307;SDS011;7755;52.208;6.964;2023-05-10T11:13:47;22.73;;;17.00;;
15307;SDS011;7755;52.208;6.964;2023-05-10T11:17:52;19.70;;;16.37;;
15307;SDS011;7755;52.208;6.964;2023-05-10T11:26:16;20.47;;;15.17;;
15307;SDS011;7755;52.208;6.964;2023-05-10T11:30:19;22.20;;;16.03;;
15307;SDS011;7755;52.208;6.964;2023-05-10T11:34:23;19.80;;;14.67;;
15307;SDS011;7755;52.208;6.964;2023-05-10T11:38:30;16.50;;;13.33;;
15307;SDS011;7755;52.208;6.964;2023-05-10T11:42:35;16.70;;;13.13;;
15307;SDS011;7755;52.208;6.964;2023-05-10T11:46:39;17.97;;;13.60;;
15307;SDS011;7755;52.208;6.964;2023-05-10T11:50:43;21.13;;;13.97;;
15307;SDS011;7755;52.208;6.964;2023-05-10T11:54:52;19.50;;;14.10;;
15307;SDS011;7755;52.208;6.964;2023-05-10T11:58:56;18.27;;;13.80;;
15307;SDS011;7755;52.208;6.964;2023-05-10T12:03:00;16.27;;;13.27;;
15307;SDS011;7755;52.208;6.964;2023-05-10T12:07:04;18.27;;;13.27;;
15307;SDS011;7755;52.208;6.964;2023-05-10T12:11:09;17.83;;;14.20;;
15307;SDS011;7755;52.208;6.964;2023-05-10T12:15:12;20.30;;;14.87;;
15307;SDS011;7755;52.208;6.964;2023-05-10T12:19:20;16.27;;;12.93;;
15307;SDS011;7755;52.208;6.964;2023-05-10T12:23:23;14.57;;;11.97;;
15307;SDS011;7755;52.208;6.964;2023-05-10T12:27:32;16.90;;;12.87;;
15307;SDS011;7755;52.208;6.964;2023-05-10T12:31:48;14.00;;;11.27;;
15307;SDS011;7755;52.208;6.964;2023-05-10T12:35:52;17.23;;;12.40;;
15307;SDS011;7755;52.208;6.964;2023-05-10T12:39:57;13.03;;;11.53;;
15307;SDS011;7755;52.208;6.964;2023-05-10T12:44:02;16.20;;;12.53;;
15307;SDS011;7755;52.208;6.964;2023-05-10T12:48:06;15.23;;;12.37;;
15307;SDS011;7755;52.208;6.964;2023-05-10T12:52:09;14.23;;;12.37;;
15307;SDS011;7755;52.208;6.964;2023-05-10T12:56:12;17.70;;;12.33;;
15307;SDS011;7755;52.208;6.964;2023-05-10T13:00:17;15.37;;;11.87;;
15307;SDS011;7755;52.208;6.964;2023-05-10T13:04:20;12.70;;;10.20;;
15307;SDS011;7755;52.208;6.964;2023-05-10T13:08:23;12.07;;;10.33;;
15307;SDS011;7755;52.208;6.964;2023-05-10T13:12:26;13.50;;;9.70;;
15307;SDS011;7755;52.208;6.964;2023-05-10T13:16:30;9.70;;;8.70;;
15307;SDS011;7755;52.208;6.964;2023-05-10T13:20:34;11.80;;;9.27;;
15307;SDS011;7755;52.208;6.964;2023-05-10T13:24:37;11.60;;;8.80;;
15307;SDS011;7755;52.208;6.964;2023-05-10T13:28:41;11.73;;;9.47;;
15307;SDS011;7755;52.208;6.964;2023-05-10T13:32:45;10.10;;;9.00;;
15307;SDS011;7755;52.208;6.964;2023-05-10T13:36:50;12.37;;;9.37;;
15307;SDS011;7755;52.208;6.964;2023-05-10T13:40:54;12.13;;;10.20;;
15307;SDS011;7755;52.208;6.964;2023-05-10T13:44:57;13.83;;;9.73;;
15307;SDS011;7755;52.208;6.964;2023-05-10T13:49:01;10.40;;;8.53;;
15307;SDS011;7755;52.208;6.964;2023-05-10T13:53:04;9.63;;;8.63;;
15307;SDS011;7755;52.208;6.964;2023-05-10T13:57:08;13.00;;;9.80;;
15307;SDS011;7755;52.208;6.964;2023-05-10T14:01:11;11.17;;;9.30;;
15307;SDS011;7755;52.208;6.964;2023-05-10T14:05:26;10.97;;;8.87;;
15307;SDS011;7755;52.208;6.964;2023-05-10T14:09:39;12.10;;;8.03;;
15307;SDS011;7755;52.208;6.964;2023-05-10T14:13:42;10.17;;;8.13;;
15307;SDS011;7755;52.208;6.964;2023-05-10T14:17:47;8.87;;;7.70;;
15307;SDS011;7755;52.208;6.964;2023-05-10T14:21:51;9.23;;;7.17;;
15307;SDS011;7755;52.208;6.964;2023-05-10T14:25:55;11.87;;;8.80;;
15307;SDS011;7755;52.208;6.964;2023-05-10T14:30:00;10.20;;;8.83;;
15307;SDS011;7755;52.208;6.964;2023-05-10T14:34:03;11.00;;;7.73;;
15307;SDS011;7755;52.208;6.964;2023-05-10T14:38:08;8.70;;;7.73;;
15307;SDS011;7755;52.208;6.964;2023-05-10T14:42:12;9.03;;;7.73;;
15307;SDS011;7755;52.208;6.964;2023-05-10T14:46:15;8.57;;;7.67;;
15307;SDS011;7755;52.208;6.964;2023-05-10T14:50:18;7.00;;;5.83;;
15307;SDS011;7755;52.208;6.964;2023-05-10T14:54:38;8.13;;;6.60;;
15307;SDS011;7755;52.208;6.964;2023-05-10T14:58:42;9.20;;;7.47;;
15307;SDS011;7755;52.208;6.964;2023-05-10T15:02:45;8.80;;;7.90;;
15307;SDS011;7755;52.208;6.964;2023-05-10T15:06:49;8.50;;;7.07;;
15307;SDS011;7755;52.208;6.964;2023-05-10T15:10:55;7.03;;;6.37;;
15307;SDS011;7755;52.208;6.964;2023-05-10T15:14:58;8.07;;;6.33;;
15307;SDS011;7755;52.208;6.964;2023-05-10T15:19:07;8.60;;;6.97;;
15307;SDS011;7755;52.208;6.964;2023-05-10T15:23:10;6.50;;;5.80;;
15307;SDS011;7755;52.208;6.964;2023-05-10T15:27:15;6.70;;;6.00;;
15307;SDS011;7755;52.208;6.964;2023-05-10T15:31:18;6.07;;;5.57;;
15307;SDS011;7755;52.208;6.964;2023-05-10T15:35:22;6.97;;;5.93;;
15307;SDS011;7755;52.208;6.964;2023-05-10T15:39:24;6.80;;;6.10;;
15307;SDS011;7755;52.208;6.964;2023-05-10T15:43:29;7.07;;;6.20;;
15307;SDS011;7755;52.208;6.964;2023-05-10T15:47:33;7.53;;;5.43;;
15307;SDS011;7755;52.208;6.964;2023-05-10T15:51:36;5.90;;;5.30;;
15307;SDS011;7755;52.208;6.964;2023-05-10T15:55:38;6.13;;;5.53;;
15307;SDS011;7755;52.208;6.964;2023-05-10T15:59:43;6.27;;;5.67;;
15307;SDS011;7755;52.208;6.964;2023-05-10T16:03:46;6.00;;;5.50;;
15307;SDS011;7755;52.208;6.964;2023-05-10T16:07:49;6.13;;;5.53;;
15307;SDS011;7755;52.208;6.964;2023-05-10T16:11:57;7.33;;;6.50;;
15307;SDS011;7755;52.208;6.964;2023-05-10T16:16:07;6.87;;;5.90;;
15307;SDS011;7755;52.208;6.964;2023-05-10T16:20:11;7.93;;;6.50;;
15307;SDS011;7755;52.208;6.964;2023-05-10T16:24:14;7.37;;;5.80;;
15307;SDS011;7755;52.208;6.964;2023-05-10T16:28:17;6.80;;;6.10;;
15307;SDS011;7755;52.208;6.964;2023-05-10T16:32:25;6.70;;;6.10;;
15307;SDS011;7755;52.208;6.964;2023-05-10T16:36:30;8.10;;;6.67;;
15307;SDS011;7755;52.208;6.964;2023-05-10T16:40:34;8.20;;;6.87;;
15307;SDS011;7755;52.208;6.964;2023-05-10T16:44:37;7.30;;;6.50;;
15307;SDS011;7755;52.208;6.964;2023-05-10T16:48:41;8.80;;;6.90;;
15307;SDS011;7755;52.208;6.964;2023-05-10T16:52:45;8.87;;;7.40;;
15307;SDS011;7755;52.208;6.964;2023-05-10T16:56:48;8.90;;;6.00;;
15307;SDS011;7755;52.208;6.964;2023-05-10T17:00:53;5.93;;;5.27;;
15307;SDS011;7755;52.208;6.964;2023-05-10T17:05:09;4.93;;;4.47;;
15307;SDS011;7755;52.208;6.964;2023-05-10T17:09:18;7.27;;;5.10;;
15307;SDS011;7755;52.208;6.964;2023-05-10T17:13:22;6.13;;;4.90;;
15307;SDS011;7755;52.208;6.964;2023-05-10T17:17:25;5.57;;;4.43;;
15307;SDS011;7755;52.208;6.964;2023-05-10T17:21:30;6.37;;;4.73;;
15307;SDS011;7755;52.208;6.964;2023-05-10T17:25:33;7.07;;;5.27;;
15307;SDS011;7755;52.208;6.964;2023-05-10T17:29:39;6.43;;;5.33;;
15307;SDS011;7755;52.208;6.964;2023-05-10T17:33:42;7.70;;;5.53;;
15307;SDS011;7755;52.208;6.964;2023-05-10T17:37:46;7.07;;;6.03;;
15307;SDS011;7755;52.208;6.964;2023-05-10T17:41:49;6.40;;;5.80;;
15307;SDS011;7755;52.208;6.964;2023-05-10T17:45:52;7.03;;;5.40;;
15307;SDS011;7755;52.208;6.964;2023-05-10T17:49:56;7.27;;;6.47;;
15307;SDS011;7755;52.208;6.964;2023-05-10T17:54:06;6.63;;;5.00;;
15307;SDS011;7755;52.208;6.964;2023-05-10T17:58:27;6.37;;;5.77;;
15307;SDS011;7755;52.208;6.964;2023-05-10T18:02:39;7.13;;;5.90;;
15307;SDS011;7755;52.208;6.964;2023-05-10T18:06:42;7.07;;;6.30;;
15307;SDS011;7755;52.208;6.964;2023-05-10T18:10:49;10.00;;;6.80;;
15307;SDS011;7755;52.208;6.964;2023-05-10T18:15:09;7.43;;;6.67;;
15307;SDS011;7755;52.208;6.964;2023-05-10T18:19:14;7.93;;;7.00;;
15307;SDS011;7755;52.208;6.964;2023-05-10T18:23:17;7.97;;;7.17;;
15307;SDS011;7755;52.208;6.964;2023-05-10T18:27:21;8.07;;;6.80;;
15307;SDS011;7755;52.208;6.964;2023-05-10T18:31:24;8.23;;;6.83;;
15307;SDS011;7755;52.208;6.964;2023-05-10T18:35:27;8.40;;;7.17;;
15307;SDS011;7755;52.208;6.964;2023-05-10T18:39:38;7.30;;;6.53;;
15307;SDS011;7755;52.208;6.964;2023-05-10T18:52:43;8.60;;;7.70;;
15307;SDS011;7755;52.208;6.964;2023-05-10T18:56:47;8.30;;;7.23;;
15307;SDS011;7755;52.208;6.964;2023-05-10T19:00:52;9.63;;;7.60;;
15307;SDS011;7755;52.208;6.964;2023-05-10T19:04:55;10.13;;;8.00;;
15307;SDS011;7755;52.208;6.964;2023-05-10T19:09:01;12.17;;;9.83;;
15307;SDS011;7755;52.208;6.964;2023-05-10T19:13:03;12.10;;;8.27;;
15307;SDS011;7755;52.208;6.964;2023-05-10T19:17:08;9.83;;;8.40;;
15307;SDS011;7755;52.208;6.964;2023-05-10T19:21:13;8.80;;;7.90;;
15307;SDS011;7755;52.208;6.964;2023-05-10T19:25:16;9.23;;;8.00;;
15307;SDS011;7755;52.208;6.964;2023-05-10T19:29:20;8.20;;;7.20;;
15307;SDS011;7755;52.208;6.964;2023-05-10T19:33:27;9.70;;;8.53;;
15307;SDS011;7755;52.208;6.964;2023-05-10T19:37:36;10.73;;;8.40;;
15307;SDS011;7755;52.208;6.964;2023-05-10T19:41:39;8.63;;;7.73;;
15307;SDS011;7755;52.208;6.964;2023-05-10T19:45:48;8.27;;;7.20;;
15307;SDS011;7755;52.208;6.964;2023-05-10T19:49:54;8.93;;;7.73;;
15307;SDS011;7755;52.208;6.964;2023-05-10T19:53:59;8.43;;;7.37;;
15307;SDS011;7755;52.208;6.964;2023-05-10T19:58:10;8.60;;;7.13;;
15307;SDS011;7755;52.208;6.964;2023-05-10T20:02:28;9.53;;;8.63;;
15307;SDS011;7755;52.208;6.964;2023-05-10T20:06:33;10.73;;;9.70;;
15307;SDS011;7755;52.208;6.964;2023-05-10T20:10:36;10.93;;;9.70;;
15307;SDS011;7755;52.208;6.964;2023-05-10T20:14:39;9.80;;;8.73;;
15307;SDS011;7755;52.208;6.964;2023-05-10T20:18:43;8.47;;;7.47;;
15307;SDS011;7755;52.208;6.964;2023-05-10T20:22:48;9.80;;;8.80;;
15307;SDS011;7755;52.208;6.964;2023-05-10T20:26:51;10.37;;;8.37;;
15307;SDS011;7755;52.208;6.964;2023-05-10T20:30:54;9.23;;;8.23;;
15307;SDS011;7755;52.208;6.964;2023-05-10T20:34:57;12.73;;;9.13;;
15307;SDS011;7755;52.208;6.964;2023-05-10T20:39:02;9.67;;;8.77;;
15307;SDS011;7755;52.208;6.964;2023-05-10T20:43:04;9.80;;;8.80;;
15307;SDS011;7755;52.208;6.964;2023-05-10T20:47:07;10.00;;;8.97;;
15307;SDS011;7755;52.208;6.964;2023-05-10T20:51:10;10.17;;;9.00;;
15307;SDS011;7755;52.208;6.964;2023-05-10T20:55:15;13.03;;;11.73;;
15307;SDS011;7755;52.208;6.964;2023-05-10T20:59:18;14.90;;;13.40;;
15307;SDS011;7755;52.208;6.964;2023-05-10T21:03:22;13.53;;;12.13;;
15307;SDS011;7755;52.208;6.964;2023-05-10T21:07:25;11.20;;;9.50;;
15307;SDS011;7755;52.208;6.964;2023-05-10T21:11:29;10.63;;;9.37;;
15307;SDS011;7755;52.208;6.964;2023-05-10T21:15:31;12.23;;;8.70;;
15307;SDS011;7755;52.208;6.964;2023-05-10T21:19:35;9.77;;;8.77;;
15307;SDS011;7755;52.208;6.964;2023-05-10T21:23:38;10.10;;;8.07;;
15307;SDS011;7755;52.208;6.964;2023-05-10T21:27:42;12.13;;;9.00;;
15307;SDS011;7755;52.208;6.964;2023-05-10T21:31:46;10.43;;;8.73;;
15307;SDS011;7755;52.208;6.964;2023-05-10T21:35:49;12.97;;;10.53;;
15307;SDS011;7755;52.208;6.964;2023-05-10T21:39:52;9.63;;;8.60;;
15307;SDS011;7755;52.208;6.964;2023-05-10T21:43:57;10.40;;;8.30;;
15307;SDS011;7755;52.208;6.964;2023-05-10T21:47:59;10.67;;;9.20;;
15307;SDS011;7755;52.208;6.964;2023-05-10T21:52:03;9.53;;;8.63;;
15307;SDS011;7755;52.208;6.964;2023-05-10T21:56:06;11.53;;;10.33;;
15307;SDS011;7755;52.208;6.964;2023-05-10T22:00:11;11.13;;;9.37;;
15307;SDS011;7755;52.208;6.964;2023-05-10T22:04:17;11.50;;;10.27;;
15307;SDS011;7755;52.208;6.964;2023-05-10T22:08:19;12.10;;;10.63;;
15307;SDS011;7755;52.208;6.964;2023-05-10T22:12:22;12.57;;;10.83;;
15307;SDS011;7755;52.208;6.964;2023-05-10T22:16:26;12.00;;;10.17;;
15307;SDS011;7755;52.208;6.964;2023-05-10T22:20:29;12.50;;;11.20;;
15307;SDS011;7755;52.208;6.964;2023-05-10T22:24:32;13.73;;;11.37;;
15307;SDS011;7755;52.208;6.964;2023-05-10T22:28:35;13.93;;;11.90;;
15307;SDS011;7755;52.208;6.964;2023-05-10T22:32:39;11.63;;;9.50;;
15307;SDS011;7755;52.208;6.964;2023-05-10T22:36:42;11.63;;;10.43;;
15307;SDS011;7755;52.208;6.964;2023-05-10T22:40:45;11.03;;;9.73;;
15307;SDS011;7755;52.208;6.964;2023-05-10T22:44:47;12.00;;;8.83;;
15307;SDS011;7755;52.208;6.964;2023-05-10T22:48:51;12.43;;;10.13;;
15307;SDS011;7755;52.208;6.964;2023-05-10T22:52:54;14.13;;;12.67;;
15307;SDS011;7755;52.208;6.964;2023-05-10T22:56:57;12.37;;;10.83;;
15307;SDS011;7755;52.208;6.964;2023-05-10T23:01:00;12.60;;;11.20;;
15307;SDS011;7755;52.208;6.964;2023-05-10T23:05:05;17.33;;;14.10;;
15307;SDS011;7755;52.208;6.964;2023-05-10T23:09:09;14.33;;;12.70;;
15307;SDS011;7755;52.208;6.964;2023-05-10T23:13:12;14.43;;;12.93;;
15307;SDS011;7755;52.208;6.964;2023-05-10T23:17:14;12.47;;;11.17;;
15307;SDS011;7755;52.208;6.964;2023-05-10T23:21:18;15.90;;;12.80;;
15307;SDS011;7755;52.208;6.964;2023-05-10T23:25:22;15.57;;;13.37;;
15307;SDS011;7755;52.208;6.964;2023-05-10T23:29:25;14.90;;;12.60;;
15307;SDS011;7755;52.208;6.964;2023-05-10T23:33:27;12.57;;;10.90;;
15307;SDS011;7755;52.208;6.964;2023-05-10T23:37:31;14.83;;;11.67;;
15307;SDS011;7755;52.208;6.964;2023-05-10T23:41:34;12.17;;;10.80;;
15307;SDS011;7755;52.208;6.964;2023-05-10T23:45:37;12.00;;;10.20;;
15307;SDS011;7755;52.208;6.964;2023-05-10T23:49:40;13.20;;;11.77;;
15307;SDS011;7755;52.208;6.964;2023-05-10T23:53:44;11.57;;;9.93;;
15307;SDS011;7755;52.208;6.964;2023-05-10T23:57:48;14.03;;;11.97;;
